• Join FlightAware (Why Join?)
  • Login
  • US Flag 
08:22AM EDT


 

Airport Tracker/Info


-or-


 

Live Flight TrackerFlight Track Log ✈ N143DE ✈ 10-May-2013 ✈ KAPF - KGPT

Flight Track Log - Related Links

Times and Time Zones

All times are in EDT time to prevent confusion due to time zone crossing. See the N143DE flight status page for this flight to view local times or setup timezone preferences in your user account.

Time Position Orientation Groundspeed Altitude Reporting Facility
EDT Latitude Longitude Course Direction KTS MPH feet Rate Location/Type
05:58PM 26.2483 -81.8389 358° North 184 212 7,600  Level Miami Center
05:59PM 26.3003 -81.8456 353° North 178 205 9,300 1,740 Climbing Miami Center
06:00PM 26.3500 -81.8522 353° North 178 205 11,100 1,620 Climbing Miami Center
06:01PM 26.4022 -81.8569 355° North 178 205 12,600 1,500 Climbing Miami Center
06:02PM 26.5274 -81.8118 354° North  Level FlightAware Approximate
06:02PM 26.4564 -81.8544 North 178 205 14,200  Level Miami Center
06:03PM 26.5000 -81.8611 352° North 178 205 15,500 1,260 Climbing Miami Center
06:04PM 26.5500 -81.8631 358° North 178 205 16,800 1,200 Climbing Miami Center
06:05PM 26.5981 -81.8653 358° North 178 205 17,900 960 Climbing Miami Center
06:06PM 26.6481 -81.8672 358° North 178 205 18,800 900 Climbing Miami Center
06:07PM 26.7000 -81.8719 355° North 178 205 19,800 900 Climbing Miami Center
06:08PM 26.7542 -81.8742 358° North 178 205 20,700 840 Climbing Miami Center
06:09PM 26.8064 -81.8764 358° North 178 205 21,500 780 Climbing Miami Center
06:10PM 26.8606 -81.8786 358° North 178 205 22,300 600 Climbing Miami Center
06:11PM 26.9025 -81.8783 360° North 178 205 22,800 660 Climbing Miami Center
06:12PM 26.9669 -81.8856 354° North 184 212 23,700 780 Climbing Miami Center
06:13PM 27.0211 -81.8833 North 184 212 24,400 660 Climbing Miami Center
06:14PM 27.0756 -81.8833 360° North 184 212 25,100 600 Climbing Miami Center
06:15PM 27.1336 -81.8883 356° North 184 212 25,700 480 Climbing Miami Center
06:16PM 27.1900 -81.8906 358° North 189 217 26,100 180 Climbing Miami Center
06:17PM 27.2503 -81.8933 358° North 201 231 26,100  Level Miami Center
06:18PM 27.3089 -81.8958 358° North 219 252 26,100  Level Miami Center
06:19PM 27.3750 -81.9150 346° North 238 274 26,100  Level Miami Center
06:20PM 27.4494 -81.9278 351° North 238 274 26,100  Level Miami Center
06:21PM 27.5181 -81.9356 354° North 243 280 26,100  Level Miami Center
06:22PM 27.5825 -81.9453 352° North 248 285 26,100  Level Miami Center
06:23PM 27.6508 -81.9578 351° North 248 285 26,100  Level Miami Center
06:24PM 27.7256 -81.9703 352° North 248 285 26,100  Level Miami Center
06:26PM 27.8442 -81.9889 352° North 249 287 26,100  Level Jacksonville Center
06:27PM 27.9111 -82.0003 351° North 249 287 26,100  Level Jacksonville Center
06:28PM 27.9778 -82.0114 352° North 249 287 26,100  Level Jacksonville Center
06:29PM 28.0325 -82.0533 326° Northwest 236 272 26,100  Level Jacksonville Center
06:30PM 28.0850 -82.0997 322° Northwest 230 265 26,100  Level Jacksonville Center
06:31PM 28.1372 -82.1442 323° Northwest 235 270 26,100  Level Jacksonville Center
06:32PM 28.1856 -82.1931 318° Northwest 235 270 26,100  Level Jacksonville Center
06:33PM 28.2400 -82.2375 324° Northwest 235 270 26,100  Level Jacksonville Center
06:34PM 28.2861 -82.2822 320° Northwest 235 270 26,100  Level Jacksonville Center
06:35PM 28.3406 -82.3314 322° Northwest 235 270 26,100  Level Jacksonville Center
06:36PM 28.3889 -82.3733 323° Northwest 235 270 26,100  Level Jacksonville Center
06:37PM 28.4392 -82.4206 320° Northwest 235 270 26,100  Level Jacksonville Center
06:38PM 28.4914 -82.4650 323° Northwest 235 270 26,100  Level Jacksonville Center
06:39PM 28.5397 -82.5097 321° Northwest 235 270 26,100  Level Jacksonville Center
06:40PM 28.5919 -82.5569 322° Northwest 235 270 26,100  Level Jacksonville Center
06:41PM 28.6442 -82.6017 323° Northwest 235 270 26,200  Climbing Jacksonville Center
06:42PM 28.6986 -82.6536 320° Northwest 235 270 26,200  Level Jacksonville Center
06:43PM 28.7508 -82.6983 323° Northwest 235 270 26,200  Level Jacksonville Center
06:44PM 28.7947 -82.7506 314° West 235 270 26,200  Level Jacksonville Center
06:45PM 28.8239 -82.8119 298° West 230 265 26,200  Level Jacksonville Center
06:46PM 28.8594 -82.8711 304° West 225 259 26,200  Level Jacksonville Center
06:47PM 28.8908 -82.9328 300° West 232 267 26,200  Level Jacksonville Center
06:48PM 28.9261 -82.9944 303° West 232 267 26,200  Level Jacksonville Center
06:49PM 28.9594 -83.0586 301° West 232 267 26,200  Level Jacksonville Center
06:50PM 28.9928 -83.1206 302° West 232 267 26,200  Level Jacksonville Center
06:51PM 29.0283 -83.1847 302° West 232 267 26,200  Level Jacksonville Center
06:52PM 29.0594 -83.2464 300° West 232 267 26,200  Level Jacksonville Center
06:53PM 29.0925 -83.3083 301° West 232 267 26,200  Level Jacksonville Center
06:54PM 29.1258 -83.3656 304° West 232 267 26,200  Level Jacksonville Center
06:55PM 29.1589 -83.4322 300° West 232 267 26,200  Level Jacksonville Center
06:56PM 29.1919 -83.4944 301° West 232 267 26,200  Level Jacksonville Center
06:57PM 29.2272 -83.5589 302° West 232 267 26,200  Level Jacksonville Center
06:58PM 29.2603 -83.6208 301° West 232 267 26,200  Level Jacksonville Center
06:59PM 29.2933 -83.6831 301° West 232 267 26,200  Level Jacksonville Center
07:00PM 29.3264 -83.7453 301° West 232 267 26,200  Level Jacksonville Center
07:01PM 29.3592 -83.8075 301° West 232 267 26,200 -60 Level Jacksonville Center
07:02PM 29.3922 -83.8722 300° West 232 267 26,100 -60 Descending Jacksonville Center
07:03PM 29.4272 -83.9369 302° West 232 267 26,100  Level Jacksonville Center
07:04PM 29.4581 -83.9944 302° West 232 267 26,100  Level Jacksonville Center
07:05PM 29.4908 -84.0592 300° West 232 267 26,200  Climbing Jacksonville Center
07:06PM 29.5236 -84.1217 301° West 227 261 26,200  Level Jacksonville Center
07:07PM 29.5564 -84.1842 301° West 227 261 26,200  Level Jacksonville Center
07:08PM 29.5892 -84.2467 301° West 232 267 26,200  Level Jacksonville Center
07:09PM 29.6219 -84.3069 302° West 232 267 26,200  Level Jacksonville Center
07:10PM 29.6547 -84.3672 302° West 232 267 26,200  Level Jacksonville Center
07:11PM 29.6853 -84.4297 299° West 232 267 26,200  Level Jacksonville Center
07:12PM 29.7178 -84.4900 302° West 227 261 26,200  Level Jacksonville Center
07:13PM 29.7506 -84.5528 301° West 232 267 26,200  Level Jacksonville Center
07:14PM 29.7831 -84.6131 302° West 232 267 26,200  Level Jacksonville Center
07:15PM 29.8156 -84.6761 301° West 232 267 26,200  Level Jacksonville Center
07:16PM 29.8481 -84.7411 300° West 232 267 26,200  Level Jacksonville Center
07:17PM 29.8725 -84.7897 300° West 232 267 26,200  Level Jacksonville Center
07:18PM 29.9131 -84.8669 301° West 232 267 26,200  Level Jacksonville Center
07:19PM 29.9433 -84.9300 299° West 232 267 26,200  Level Jacksonville Center
07:20PM 29.9631 -84.9953 289° West 226 260 26,200  Level Jacksonville Center
07:21PM 29.9806 -85.0722 285° West 232 267 26,200  Level Jacksonville Center
07:22PM 30.0003 -85.1422 288° West 232 267 26,200  Level Jacksonville Center
07:23PM 30.0139 -85.2072 284° West 232 267 26,200  Level Jacksonville Center
07:24PM 30.0314 -85.2772 286° West 232 267 26,200  Level Jacksonville Center
07:25PM 30.0467 -85.3472 284° West 232 267 26,200  Level Jacksonville Center
07:26PM 30.0617 -85.4342 281° West 236 272 26,200  Level Jacksonville Center
07:27PM 30.0814 -85.4969 290° West 227 261 26,200  Level Jacksonville Center
07:28PM 30.0967 -85.5647 285° West 228 262 26,200  Level Jacksonville Center
07:29PM 30.1161 -85.6300 289° West 234 269 26,200  Level Jacksonville Center
07:30PM 30.1311 -85.7097 282° West 234 269 26,200  Level Jacksonville Center
07:31PM 30.1486 -85.7678 289° West 229 264 26,200  Level Jacksonville Center
07:32PM 30.1656 -85.8381 286° West 229 264 26,200  Level Jacksonville Center
07:33PM 30.1808 -85.9058 285° West 223 257 26,200  Level Jacksonville Center
07:34PM 30.1958 -85.9758 284° West 223 257 26,200  Level Jacksonville Center
07:35PM 30.2128 -86.0461 286° West 223 257 26,200  Level Jacksonville Center
07:36PM 30.2300 -86.1164 286° West 223 257 26,200  Level Jacksonville Center
07:37PM 30.2450 -86.1842 284° West 223 257 26,200  Level Jacksonville Center
07:38PM 30.2619 -86.2544 286° West 223 257 26,200  Level Jacksonville Center
07:39PM 30.2747 -86.3222 282° West 223 257 26,200  Level Jacksonville Center
07:40PM 30.2936 -86.3928 287° West 223 257 26,200  Level Jacksonville Center
07:41PM 30.3083 -86.4631 284° West 228 262 26,200  Level Jacksonville Center
07:42PM 30.3253 -86.5333 286° West 228 262 26,200  Level Jacksonville Center
07:43PM 30.3397 -86.6039 283° West 228 262 26,200  Level Jacksonville Center
07:44PM 30.3567 -86.6719 286° West 228 262 26,200  Level Jacksonville Center
07:45PM 30.3733 -86.7447 285° West 228 262 26,200  Level Jacksonville Center
07:46PM 30.3878 -86.8150 283° West 228 262 26,200  Level Jacksonville Center
07:47PM 30.4083 -86.8906 288° West 228 262 26,200  Level Jacksonville Center
07:48PM 30.4250 -86.9636 285° West 233 268 26,200  Level Jacksonville Center
07:49PM 30.4414 -87.0342 285° West 238 274 26,200  Level Jacksonville Center
07:50PM 30.4556 -87.1094 282° West 238 274 26,200  Level Jacksonville Center
07:51PM 30.4719 -87.1800 285° West 238 274 26,200 -300 Level Jacksonville Center
07:52PM 30.4864 -87.2506 283° West 238 274 25,700 -660 Descending Jacksonville Center
07:54PM 30.5233 -87.4253 284° West 253 291 24,300 -480 Descending Houston Center
07:55PM 30.5411 -87.5022 285° West 248 285 24,200 -120 Descending Houston Center
07:56PM 30.5606 -87.5736 288° West 234 269 24,100 -60 Descending Houston Center
07:57PM 30.5781 -87.6461 286° West 232 267 24,100 -480 Level Houston Center
07:58PM 30.5961 -87.7211 286° West 241 277 23,200 -960 Descending Houston Center
07:59PM 30.6156 -87.7994 286° West 251 289 22,200 -1,020 Descending Houston Center
08:00PM 30.6381 -87.8772 289° West 254 292 21,200 -1,020 Descending Houston Center
08:01PM 30.6533 -87.9711 281° West 245 282 20,200 -900 Descending Houston Center
08:03PM 30.6681 -88.0486 282° West 244 281 19,400 -960 Descending Houston Center
08:04PM 30.6831 -88.1269 283° West 247 284 18,300 -1,080 Descending Houston Center
08:05PM 30.6994 -88.2058 284° West 249 287 17,300 -1,020 Descending Houston Center
08:06PM 30.7125 -88.2822 281° West 243 280 16,300 -1,080 Descending Houston Center
08:07PM 30.7256 -88.3586 281° West 240 276 15,100 -1,200 Descending Houston Center
08:08PM 30.6964 -88.4267 244° Southwest 233 268 13,900 -1,200 Descending Houston Center
08:09PM 30.6683 -88.4903 243° Southwest 223 257 12,700 -1,320 Descending Houston Center
08:10PM 30.6386 -88.5539 242° Southwest 223 257 11,200 -1,440 Descending Houston Center
08:11PM 30.6083 -88.6186 241° Southwest 226 260 9,800 -1,620 Descending Houston Center
08:12PM 30.5617 -88.6864 231° Southwest 226 260 7,900 -1,620 Descending Houston Center
08:13PM 30.5119 -88.7311 218° Southwest 226 260 6,500 -1,260 Descending Houston Center
08:14PM 30.4642 -88.7753 219° Southwest 224 258 5,400 -1,200 Descending Houston Center
08:15PM 30.4225 -88.8122 217° Southwest 207 238 4,100 -1,200 Descending Houston Center
08:16PM 30.3825 -88.8475 217° Southwest 188 216 3,000 -1,020 Descending Houston Center
08:17PM 30.3414 -88.8822 216° Southwest 182 209 2,100 -540 Descending Houston Center
08:18PM 30.3058 -88.9161 219° Southwest 168 193 2,000 -60 Descending Houston Center
08:19PM 30.3094 -88.9522 277° West 122 140 2,000 -60 Level Houston Center
08:20PM 30.3333 -88.9881 308° West 117 135 1,900 -360 Descending Houston Center
08:21PM 30.3578 -89.0167 315° West 120 138 1,300 -540 Descending Houston Center
08:22PM 30.3808 -89.0436 315° West 123 142 900 -540 Descending Houston Center
08:23PM 30.4081 -89.0742 316° Northwest 125 144 300 -600 Descending Houston Center
08:25PM 30.4073 -89.0701 103° East  Level Estimated